createdAt,value
2022-09-15T00:01:18.550Z,15.50
2022-09-15T00:03:47.856Z,15.50
2022-09-15T00:06:16.451Z,15.50
2022-09-15T00:08:44.636Z,15.50
2022-09-15T00:11:20.822Z,15.50
2022-09-15T00:13:50.304Z,15.50
2022-09-15T00:16:21.113Z,15.50
2022-09-15T00:18:49.352Z,15.50
2022-09-15T00:21:26.246Z,15.50
2022-09-15T00:23:54.979Z,15.50
2022-09-15T00:26:26.663Z,15.50
2022-09-15T00:28:57.402Z,15.50
2022-09-15T00:31:27.332Z,15.50
2022-09-15T00:33:58.206Z,15.50
2022-09-15T00:36:27.086Z,15.50
2022-09-15T00:38:55.853Z,15.50
2022-09-15T00:41:25.215Z,15.50
2022-09-15T00:43:58.323Z,15.50
2022-09-15T00:47:17.667Z,15.50
2022-09-15T00:49:45.439Z,15.48
2022-09-15T00:52:34.745Z,15.48
2022-09-15T00:55:18.814Z,15.50
2022-09-15T00:58:01.198Z,15.50
2022-09-15T01:00:29.661Z,15.50
2022-09-15T01:03:23.501Z,15.50
2022-09-15T01:05:56.969Z,15.50
2022-09-15T01:09:08.566Z,15.46
2022-09-15T01:11:36.692Z,15.40
2022-09-15T01:14:04.555Z,15.40
2022-09-15T01:20:50.001Z,15.50
2022-09-15T01:23:58.913Z,15.50
2022-09-15T01:27:37.802Z,15.50
2022-09-15T01:30:23.129Z,15.48
2022-09-15T01:33:25.813Z,15.40
2022-09-15T01:36:14.329Z,15.40
2022-09-15T01:39:02.381Z,15.40
2022-09-15T01:41:45.926Z,15.40
2022-09-15T01:44:29.059Z,15.40
2022-09-15T01:47:01.563Z,15.46
2022-09-15T01:49:37.170Z,15.50
2022-09-15T01:52:05.834Z,15.50
2022-09-15T01:54:49.063Z,15.50
2022-09-15T01:57:21.285Z,15.50
2022-09-15T01:59:50.053Z,15.50
2022-09-15T02:02:42.711Z,15.50
2022-09-15T02:05:21.689Z,15.50
2022-09-15T02:08:05.881Z,15.50
2022-09-15T02:10:51.585Z,15.50
2022-09-15T02:13:32.726Z,15.50
2022-09-15T02:16:00.819Z,15.56
2022-09-15T02:19:02.029Z,15.60
2022-09-15T02:21:42.942Z,15.60
2022-09-15T02:24:19.152Z,15.60
2022-09-15T02:26:51.509Z,15.60
2022-09-15T02:29:21.267Z,15.56
2022-09-15T02:31:52.407Z,15.52
2022-09-15T02:34:29.629Z,15.50
2022-09-15T02:36:57.960Z,15.50
2022-09-15T02:39:34.792Z,15.50
2022-09-15T02:42:04.113Z,15.50
2022-09-15T02:44:32.522Z,15.50
2022-09-15T02:47:02.031Z,15.50
2022-09-15T02:49:30.126Z,15.50
2022-09-15T02:51:57.885Z,15.40
2022-09-15T02:54:25.609Z,15.40
2022-09-15T02:56:53.368Z,15.40
2022-09-15T02:59:21.067Z,15.40
2022-09-15T03:01:48.972Z,15.40
2022-09-15T03:04:16.948Z,15.40
2022-09-15T03:06:44.719Z,15.34
2022-09-15T03:09:13.568Z,15.30
2022-09-15T03:11:41.312Z,15.30
2022-09-15T03:14:09.225Z,15.32
2022-09-15T03:16:37.318Z,15.30
2022-09-15T03:19:05.768Z,15.34
2022-09-15T03:21:33.578Z,15.40
2022-09-15T03:24:01.803Z,15.32
2022-09-15T03:26:29.795Z,15.30
2022-09-15T03:28:57.598Z,15.30
2022-09-15T03:31:25.507Z,15.30
2022-09-15T03:33:55.398Z,15.30
2022-09-15T03:36:23.244Z,15.30
2022-09-15T03:38:51.116Z,15.30
2022-09-15T03:41:19.182Z,15.30
2022-09-15T03:43:46.943Z,15.28
2022-09-15T03:46:14.879Z,15.30
2022-09-15T03:48:42.682Z,15.22
2022-09-15T03:51:11.647Z,15.20
2022-09-15T03:53:41.787Z,15.20
2022-09-15T03:56:13.881Z,15.20
2022-09-15T03:58:41.653Z,15.24
2022-09-15T04:01:09.475Z,15.30
2022-09-15T04:03:42.739Z,15.30
2022-09-15T04:06:13.995Z,15.30
2022-09-15T04:08:42.414Z,15.30
2022-09-15T04:11:12.319Z,15.30
2022-09-15T04:13:42.081Z,15.30
2022-09-15T04:16:14.265Z,15.30
2022-09-15T04:18:42.778Z,15.32
2022-09-15T04:21:15.767Z,15.30
2022-09-15T04:23:44.905Z,15.30
2022-09-15T04:26:31.337Z,15.34
2022-09-15T04:29:04.320Z,15.34
2022-09-15T04:31:33.952Z,15.30
2022-09-15T04:34:02.329Z,15.30
2022-09-15T04:36:31.537Z,15.30
2022-09-15T04:38:59.372Z,15.30
2022-09-15T04:41:28.254Z,15.30
2022-09-15T04:43:56.267Z,15.30
2022-09-15T04:46:24.184Z,15.30
2022-09-15T04:48:52.180Z,15.30
2022-09-15T04:51:23.160Z,15.30
2022-09-15T04:53:51.982Z,15.20
2022-09-15T04:56:23.115Z,15.20
2022-09-15T04:58:56.478Z,15.26
2022-09-15T05:01:30.414Z,15.24
2022-09-15T05:03:58.233Z,15.30
2022-09-15T05:06:27.943Z,15.30
2022-09-15T05:08:58.074Z,15.30
2022-09-15T05:11:27.166Z,15.40
2022-09-15T05:13:54.899Z,15.40
2022-09-15T05:16:25.990Z,15.40
2022-09-15T05:19:02.983Z,15.40
2022-09-15T05:21:31.715Z,15.46
2022-09-15T05:23:59.429Z,15.42
2022-09-15T05:26:29.612Z,15.44
2022-09-15T05:28:58.023Z,15.50
2022-09-15T05:31:31.290Z,15.40
2022-09-15T05:34:03.839Z,15.40
2022-09-15T05:36:32.534Z,15.40
2022-09-15T05:39:01.717Z,15.40
2022-09-15T05:41:30.408Z,15.40
2022-09-15T05:43:58.734Z,15.40
2022-09-15T05:46:27.851Z,15.44
2022-09-15T05:48:57.761Z,15.50
2022-09-15T05:51:25.653Z,15.50
2022-09-15T05:53:53.358Z,15.50
2022-09-15T05:56:21.420Z,15.50
2022-09-15T05:58:50.174Z,15.50
2022-09-15T06:01:22.421Z,15.50
2022-09-15T06:03:50.981Z,15.52
2022-09-15T06:06:19.713Z,15.60
2022-09-15T06:08:53.064Z,15.60
2022-09-15T06:11:30.558Z,15.70
2022-09-15T06:14:04.143Z,15.70
2022-09-15T06:16:35.166Z,15.70
2022-09-15T06:19:03.940Z,15.80
2022-09-15T06:21:33.215Z,15.80
2022-09-15T06:24:06.008Z,15.90
2022-09-15T06:26:34.476Z,15.90
2022-09-15T06:29:05.201Z,16.00
2022-09-15T06:31:35.704Z,16.10
2022-09-15T06:34:05.023Z,16.10
2022-09-15T06:36:33.410Z,16.10
2022-09-15T06:39:01.247Z,16.12
2022-09-15T06:41:38.470Z,16.20
2022-09-15T06:44:21.687Z,16.30
2022-09-15T06:46:49.741Z,16.30
2022-09-15T06:49:18.001Z,16.40
2022-09-15T06:51:45.844Z,16.40
2022-09-15T06:54:16.281Z,16.50
2022-09-15T06:56:45.157Z,16.50
2022-09-15T06:59:14.592Z,16.60
2022-09-15T07:01:47.040Z,16.70
2022-09-15T07:04:14.799Z,16.70
2022-09-15T07:06:42.490Z,16.80
2022-09-15T07:09:10.828Z,16.90
2022-09-15T07:11:38.651Z,17.00
2022-09-15T07:14:06.886Z,17.00
2022-09-15T07:16:34.708Z,17.00
2022-09-15T07:19:03.770Z,17.10
2022-09-15T07:21:31.706Z,17.10
2022-09-15T07:24:03.721Z,17.20
2022-09-15T07:26:34.590Z,17.20
2022-09-15T07:29:06.961Z,17.28
2022-09-15T07:31:37.933Z,17.40
2022-09-15T07:34:06.571Z,17.50
2022-09-15T07:36:35.176Z,17.70
2022-09-15T07:39:04.722Z,17.80
2022-09-15T07:41:33.319Z,17.88
2022-09-15T07:44:01.837Z,17.84
2022-09-15T07:46:32.471Z,17.90
2022-09-15T07:49:02.988Z,17.80
2022-09-15T07:51:30.959Z,17.70
2022-09-15T07:53:59.554Z,17.70
2022-09-15T07:56:27.533Z,17.60
2022-09-15T07:58:55.301Z,17.60
2022-09-15T08:01:23.578Z,17.70
2022-09-15T08:03:52.559Z,17.70
2022-09-15T08:06:26.001Z,17.80
2022-09-15T08:08:59.282Z,17.80
2022-09-15T08:11:29.275Z,17.92
2022-09-15T08:14:00.308Z,18.00
2022-09-15T08:16:28.347Z,18.10
2022-09-15T08:18:56.182Z,18.20
2022-09-15T08:21:24.222Z,18.20
2022-09-15T08:23:56.200Z,18.20
2022-09-15T08:26:25.900Z,18.30
2022-09-15T08:28:53.795Z,18.26
2022-09-15T08:31:24.292Z,18.24
2022-09-15T08:33:55.675Z,18.20
2022-09-15T08:36:27.542Z,18.20
2022-09-15T08:38:56.173Z,18.20
2022-09-15T08:41:33.642Z,18.26
2022-09-15T08:44:36.927Z,18.24
2022-09-15T08:47:20.564Z,18.30
2022-09-15T08:50:24.880Z,18.40
2022-09-15T08:53:16.582Z,18.50
2022-09-15T08:55:49.558Z,19.10
2022-09-15T08:58:29.811Z,19.30
2022-09-15T09:01:46.844Z,19.14
2022-09-15T09:04:32.866Z,19.10
2022-09-15T09:07:23.405Z,19.10
2022-09-15T09:10:00.027Z,19.10
2022-09-15T09:13:23.930Z,19.10
2022-09-15T09:16:10.612Z,19.00
2022-09-15T09:19:10.558Z,19.00
2022-09-15T09:21:42.215Z,19.10
2022-09-15T09:24:15.350Z,19.10
2022-09-15T09:26:49.701Z,19.00
2022-09-15T09:29:31.487Z,18.90
2022-09-15T09:31:59.970Z,18.90
2022-09-15T09:34:48.166Z,18.90
2022-09-15T09:37:17.134Z,19.02
2022-09-15T09:39:46.722Z,19.06
2022-09-15T09:42:18.374Z,19.10
2022-09-15T09:44:47.320Z,19.06
2022-09-15T09:47:15.527Z,19.00
2022-09-15T09:49:49.510Z,19.10
2022-09-15T09:52:39.442Z,19.20
2022-09-15T09:55:19.993Z,19.22
2022-09-15T09:57:47.758Z,19.20
2022-09-15T10:00:36.814Z,19.30
2022-09-15T10:03:22.453Z,19.40
2022-09-15T10:06:19.233Z,19.44
2022-09-15T10:08:58.198Z,19.60
2022-09-15T10:11:59.239Z,19.70
2022-09-15T10:14:35.345Z,19.80
2022-09-15T10:17:09.511Z,19.90
2022-09-15T10:19:42.937Z,19.90
2022-09-15T10:22:22.208Z,20.00
2022-09-15T10:24:50.510Z,20.00
2022-09-15T10:27:27.002Z,20.16
2022-09-15T10:29:56.300Z,20.10
2022-09-15T10:32:28.630Z,20.20
2022-09-15T10:35:19.440Z,20.30
2022-09-15T10:38:12.290Z,20.40
2022-09-15T10:41:13.859Z,20.50
2022-09-15T10:44:15.651Z,20.48
2022-09-15T10:47:03.170Z,20.60
2022-09-15T10:49:52.113Z,20.70
2022-09-15T10:53:09.787Z,20.70
2022-09-15T10:56:04.371Z,20.60
2022-09-15T10:58:43.566Z,20.52
2022-09-15T11:01:30.400Z,20.40
2022-09-15T11:04:21.499Z,20.40
2022-09-15T11:07:27.422Z,20.40
2022-09-15T11:10:22.722Z,20.36
2022-09-15T11:13:16.555Z,20.20
2022-09-15T11:15:47.373Z,20.00
2022-09-15T11:18:30.954Z,19.90
2022-09-15T11:21:22.727Z,19.72
2022-09-15T11:24:34.673Z,19.70
2022-09-15T11:27:08.145Z,19.70
2022-09-15T11:29:48.242Z,19.76
2022-09-15T11:32:29.521Z,19.70
2022-09-15T11:35:42.027Z,19.70
2022-09-15T11:38:37.448Z,19.70
2022-09-15T11:41:39.082Z,19.64
2022-09-15T11:44:30.962Z,19.52
2022-09-15T11:47:04.796Z,19.50
2022-09-15T11:49:51.098Z,19.50
2022-09-15T11:52:32.302Z,19.60
2022-09-15T11:55:11.756Z,19.60
2022-09-15T11:57:50.692Z,19.60
2022-09-15T12:00:18.640Z,19.60
2022-09-15T12:03:46.947Z,19.50
2022-09-15T12:06:24.809Z,19.40
2022-09-15T12:08:57.057Z,19.30
2022-09-15T12:11:28.477Z,19.28
2022-09-15T12:13:57.159Z,19.30
2022-09-15T12:16:26.503Z,19.30
2022-09-15T12:19:14.589Z,19.30
2022-09-15T12:21:56.991Z,19.20
2022-09-15T12:24:49.728Z,19.20
2022-09-15T12:27:20.069Z,19.10
2022-09-15T12:29:53.899Z,19.10
2022-09-15T12:32:28.981Z,19.10
2022-09-15T12:35:20.786Z,19.10
2022-09-15T12:37:55.439Z,19.10
2022-09-15T12:40:27.852Z,19.10
2022-09-15T12:42:57.361Z,19.10
2022-09-15T12:45:36.293Z,19.10
2022-09-15T12:48:15.526Z,19.08
2022-09-15T12:50:54.761Z,19.06
2022-09-15T12:54:00.429Z,19.00
2022-09-15T12:56:31.620Z,19.10
2022-09-15T12:59:11.138Z,19.10
2022-09-15T13:01:45.055Z,19.10
2022-09-15T13:04:44.772Z,19.10
2022-09-15T13:07:15.513Z,19.10
2022-09-15T13:09:46.489Z,19.10
2022-09-15T13:12:17.766Z,19.20
2022-09-15T13:14:48.333Z,19.20
2022-09-15T13:17:21.437Z,19.30
2022-09-15T13:19:54.412Z,19.30
2022-09-15T13:22:32.349Z,19.30
2022-09-15T13:25:15.690Z,19.20
2022-09-15T13:27:47.913Z,19.20
2022-09-15T13:30:38.074Z,19.30
2022-09-15T13:40:18.218Z,19.20
2022-09-15T13:43:07.566Z,19.20
2022-09-15T13:45:55.421Z,19.20
2022-09-15T13:49:07.041Z,19.20
2022-09-15T13:51:37.374Z,19.28
2022-09-15T13:54:12.542Z,19.20
2022-09-15T13:56:41.416Z,19.20
2022-09-15T13:59:24.162Z,19.20
2022-09-15T14:01:53.915Z,19.30
2022-09-15T14:04:31.089Z,19.30
2022-09-15T14:07:01.562Z,19.40
2022-09-15T14:09:42.605Z,19.54
2022-09-15T14:12:15.681Z,20.76
2022-09-15T14:14:55.598Z,22.48
2022-09-15T14:17:29.525Z,22.90
2022-09-15T14:20:01.160Z,22.06
2022-09-15T14:22:34.994Z,21.58
2022-09-15T14:25:14.724Z,21.20
2022-09-15T14:27:49.698Z,20.74
2022-09-15T14:30:29.463Z,20.40
2022-09-15T14:33:01.221Z,20.20
2022-09-15T14:35:35.842Z,20.20
2022-09-15T14:38:04.189Z,20.20
2022-09-15T14:40:36.821Z,20.30
2022-09-15T14:43:45.515Z,20.30
2022-09-15T14:46:19.246Z,20.22
2022-09-15T14:48:47.146Z,20.20
2022-09-15T14:51:28.740Z,20.08
2022-09-15T14:53:59.980Z,20.00
2022-09-15T14:56:34.391Z,20.00
2022-09-15T14:59:09.147Z,19.92
2022-09-15T15:01:50.673Z,19.90
2022-09-15T15:04:35.499Z,19.80
2022-09-15T15:07:22.889Z,19.80
2022-09-15T15:09:56.844Z,19.76
2022-09-15T15:12:34.735Z,19.70
2022-09-15T15:15:03.312Z,19.60
2022-09-15T15:17:44.493Z,19.50
2022-09-15T15:20:14.215Z,19.48
2022-09-15T15:22:44.370Z,19.40
2022-09-15T15:25:28.693Z,19.30
2022-09-15T15:28:00.517Z,19.20
2022-09-15T15:30:47.320Z,19.10
2022-09-15T15:33:28.026Z,19.00
2022-09-15T15:36:05.717Z,18.90
2022-09-15T15:38:36.630Z,18.90
2022-09-15T15:41:08.059Z,18.80
2022-09-15T15:43:35.940Z,18.80
2022-09-15T15:46:06.031Z,18.70
2022-09-15T15:48:38.324Z,18.70
2022-09-15T15:51:09.326Z,18.60
2022-09-15T15:53:37.136Z,18.60
2022-09-15T15:56:07.959Z,18.50
2022-09-15T15:58:35.693Z,18.50
2022-09-15T16:01:03.500Z,18.40
2022-09-15T16:03:31.300Z,18.40
2022-09-15T16:06:00.193Z,18.40
2022-09-15T16:08:33.474Z,18.30
2022-09-15T16:11:02.680Z,18.30
2022-09-15T16:13:31.158Z,18.30
2022-09-15T16:16:01.205Z,18.22
2022-09-15T16:18:29.762Z,18.20
2022-09-15T16:20:57.534Z,18.10
2022-09-15T16:23:25.298Z,18.10
2022-09-15T16:26:01.834Z,18.02
2022-09-15T16:28:30.097Z,18.00
2022-09-15T16:30:58.289Z,17.96
2022-09-15T16:33:26.396Z,17.90
2022-09-15T16:36:06.769Z,17.88
2022-09-15T16:38:36.304Z,17.80
2022-09-15T16:41:12.450Z,17.70
2022-09-15T16:43:40.344Z,17.70
2022-09-15T16:46:11.377Z,17.68
2022-09-15T16:48:41.242Z,17.60
2022-09-15T16:51:28.398Z,17.60
2022-09-15T16:53:57.396Z,17.50
2022-09-15T16:56:25.705Z,17.50
2022-09-15T16:58:58.912Z,17.40
2022-09-15T17:01:27.828Z,17.30
2022-09-15T17:03:55.867Z,17.28
2022-09-15T17:06:23.821Z,17.20
2022-09-15T17:08:51.655Z,17.12
2022-09-15T17:11:20.534Z,17.10
2022-09-15T17:13:48.282Z,17.10
2022-09-15T17:16:19.544Z,17.00
2022-09-15T17:18:47.808Z,17.00
2022-09-15T17:21:17.912Z,17.00
2022-09-15T17:23:49.331Z,16.90
2022-09-15T17:26:21.736Z,16.90
2022-09-15T17:28:49.481Z,16.88
2022-09-15T17:31:21.812Z,16.86
2022-09-15T17:33:51.061Z,16.80
2022-09-15T17:36:19.074Z,16.80
2022-09-15T17:38:48.926Z,16.80
2022-09-15T17:41:21.547Z,16.78
2022-09-15T17:43:50.868Z,16.70
2022-09-15T17:46:18.648Z,16.70
2022-09-15T17:48:46.456Z,16.70
2022-09-15T17:51:17.712Z,16.68
2022-09-15T17:53:46.942Z,16.60
2022-09-15T17:56:14.976Z,16.60
2022-09-15T17:58:43.839Z,16.50
2022-09-15T18:01:15.576Z,16.50
2022-09-15T18:03:45.154Z,16.40
2022-09-15T18:06:13.643Z,16.40
2022-09-15T18:08:41.780Z,16.40
2022-09-15T18:11:13.780Z,16.30
2022-09-15T18:13:41.911Z,16.22
2022-09-15T18:16:13.971Z,16.20
2022-09-15T18:18:42.011Z,16.10
2022-09-15T18:21:22.781Z,16.04
2022-09-15T18:23:50.640Z,16.00
2022-09-15T18:26:21.607Z,16.00
2022-09-15T18:28:54.380Z,15.96
2022-09-15T18:31:22.838Z,15.90
2022-09-15T18:33:50.715Z,15.90
2022-09-15T18:36:18.681Z,15.90
2022-09-15T18:38:46.519Z,15.88
2022-09-15T18:41:14.438Z,15.80
2022-09-15T18:43:43.702Z,15.80
2022-09-15T18:46:11.533Z,15.80
2022-09-15T18:48:39.384Z,15.80
2022-09-15T18:51:16.284Z,15.80
2022-09-15T18:53:49.744Z,15.80
2022-09-15T18:56:19.827Z,15.80
2022-09-15T18:58:48.001Z,15.86
2022-09-15T19:01:18.002Z,15.90
2022-09-15T19:03:46.301Z,15.90
2022-09-15T19:06:14.289Z,15.90
2022-09-15T19:08:42.294Z,15.90
2022-09-15T19:11:10.144Z,15.90
2022-09-15T19:13:38.188Z,15.90
2022-09-15T19:16:07.379Z,15.90
2022-09-15T19:18:36.052Z,15.90
2022-09-15T19:21:11.761Z,15.90
2022-09-15T19:23:39.590Z,15.90
2022-09-15T19:26:13.695Z,15.90
2022-09-15T19:28:45.080Z,15.90
2022-09-15T19:31:13.621Z,15.90
2022-09-15T19:33:41.623Z,15.90
2022-09-15T19:36:28.454Z,15.90
2022-09-15T19:39:00.294Z,15.90
2022-09-15T19:41:28.133Z,15.98
2022-09-15T19:43:56.372Z,15.90
2022-09-15T19:46:25.704Z,15.90
2022-09-15T19:48:53.971Z,15.90
2022-09-15T19:51:22.477Z,15.90
2022-09-15T19:53:53.498Z,15.94
2022-09-15T19:56:23.458Z,15.90
2022-09-15T19:58:51.365Z,15.90
2022-09-15T20:01:19.827Z,15.90
2022-09-15T20:09:17.787Z,15.90
2022-09-15T20:11:46.297Z,15.90
2022-09-15T20:14:14.579Z,15.90
2022-09-15T20:16:42.473Z,15.90
2022-09-15T20:19:10.839Z,15.90
2022-09-15T20:21:55.822Z,15.90
2022-09-15T20:24:24.712Z,15.90
2022-09-15T20:26:52.747Z,15.90
2022-09-15T20:29:21.276Z,15.90
2022-09-15T20:31:49.624Z,15.86
2022-09-15T20:34:18.841Z,15.80
2022-09-15T20:36:46.792Z,15.80
2022-09-15T20:39:15.401Z,15.80
2022-09-15T20:41:45.096Z,15.70
2022-09-15T20:44:14.454Z,15.70
2022-09-15T20:46:42.771Z,15.70
2022-09-15T20:49:11.466Z,15.70
2022-09-15T20:51:39.473Z,15.60
2022-09-15T20:54:07.299Z,15.60
2022-09-15T20:56:36.167Z,15.60
2022-09-15T20:59:04.628Z,15.60
2022-09-15T21:01:37.002Z,15.54
2022-09-15T21:04:10.768Z,15.50
2022-09-15T21:06:39.700Z,15.50
2022-09-15T21:09:08.016Z,15.50
2022-09-15T21:11:36.031Z,15.50
2022-09-15T21:14:04.094Z,15.50
2022-09-15T21:16:33.832Z,15.50
2022-09-15T21:19:01.958Z,15.44
2022-09-15T21:21:32.591Z,15.40
2022-09-15T21:24:08.606Z,15.40
2022-09-15T21:27:00.277Z,15.40
2022-09-15T21:29:29.056Z,15.40
2022-09-15T21:31:57.766Z,15.30
2022-09-15T21:34:26.353Z,15.30
2022-09-15T21:36:54.268Z,15.28
2022-09-15T21:39:22.176Z,15.26
2022-09-15T21:41:50.138Z,15.20
2022-09-15T21:44:18.319Z,15.20
2022-09-15T21:46:47.306Z,15.16
2022-09-15T21:49:15.213Z,15.10
2022-09-15T21:51:42.982Z,15.10
2022-09-15T21:54:10.751Z,15.06
2022-09-15T21:56:38.538Z,15.00
2022-09-15T21:59:09.091Z,15.00
2022-09-15T22:01:36.950Z,15.00
2022-09-15T22:04:08.403Z,15.00
2022-09-15T22:06:40.671Z,14.90
2022-09-15T22:09:16.231Z,14.90
2022-09-15T22:11:44.511Z,14.80
2022-09-15T22:14:13.378Z,14.80
2022-09-15T22:16:43.036Z,14.80
2022-09-15T22:19:12.103Z,14.70
2022-09-15T22:21:42.168Z,14.68
2022-09-15T22:24:12.986Z,14.60
2022-09-15T22:26:42.740Z,14.60
2022-09-15T22:29:11.195Z,14.50
2022-09-15T22:31:39.159Z,14.50
2022-09-15T22:34:07.019Z,14.50
2022-09-15T22:36:35.260Z,14.50
2022-09-15T22:39:05.510Z,14.50
2022-09-15T22:41:38.308Z,14.50
2022-09-15T22:44:16.299Z,14.44
2022-09-15T22:46:44.529Z,14.40
2022-09-15T22:49:12.563Z,14.40
2022-09-15T22:51:40.512Z,14.40
2022-09-15T22:54:08.604Z,14.34
2022-09-15T22:56:36.403Z,14.30
2022-09-15T22:59:04.224Z,14.24
2022-09-15T23:01:32.080Z,14.20
2022-09-15T23:04:02.377Z,14.10
2022-09-15T23:06:33.581Z,14.00
2022-09-15T23:09:06.494Z,14.00
2022-09-15T23:11:35.218Z,13.90
2022-09-15T23:14:03.039Z,13.90
2022-09-15T23:16:30.941Z,13.90
2022-09-15T23:18:59.860Z,13.90
2022-09-15T23:21:28.468Z,13.80
2022-09-15T23:23:56.326Z,13.80
2022-09-15T23:26:25.993Z,13.70
2022-09-15T23:28:55.066Z,13.70
2022-09-15T23:31:23.105Z,13.60
2022-09-15T23:33:50.896Z,13.60
2022-09-15T23:36:19.756Z,13.60
2022-09-15T23:38:49.094Z,13.60
2022-09-15T23:41:18.498Z,13.60
2022-09-15T23:43:47.124Z,13.60
2022-09-15T23:46:17.417Z,13.60
2022-09-15T23:48:45.426Z,13.60
2022-09-15T23:51:13.270Z,13.60
2022-09-15T23:53:41.323Z,13.60
2022-09-15T23:56:09.054Z,13.56
2022-09-15T23:58:37.303Z,13.50
